Wilcox, Nebraska
Current Conditions -  °F | °C
As of 3:35 PM on Friday 28 Nov 2014 (Local Time) from KHDE Reporting Station
Clear Clear  
Wind Chill: 74°   Ceiling: Unl
Heat Index: 74°   Visibility: 10mi
Dew Point: 17°   Wind: 18mph
Humidity: 11%   Direction: 280°W
Pressure: 29.68"   Gusts: 31mph
Location:  40.37°N, 99.17°W
Report Text: KHDE 282135Z AUTO 28016G27KT 10SM CLR 24/M08 A2968 RMK AO2 T02361082
Loading
Personal Weather Stations






























Interactive Weather Map New forecast layout! Learn more

10-Day Weather Forecast

Advertisements
Track Severe Weather on mobile